createdAt,value
2018-06-08T00:00:33.489Z,18.67
2018-06-08T00:01:33.424Z,18.73
2018-06-08T00:02:33.346Z,18.71
2018-06-08T00:03:33.276Z,18.69
2018-06-08T00:04:33.203Z,18.58
2018-06-08T00:05:33.134Z,18.67
2018-06-08T00:06:33.065Z,18.62
2018-06-08T00:07:32.990Z,18.68
2018-06-08T00:08:32.921Z,18.69
2018-06-08T00:09:32.850Z,18.64
2018-06-08T00:10:32.778Z,18.61
2018-06-08T00:11:32.708Z,18.58
2018-06-08T00:12:32.638Z,18.52
2018-06-08T00:13:32.569Z,18.50
2018-06-08T00:14:32.495Z,18.52
2018-06-08T00:15:32.427Z,18.49
2018-06-08T00:16:32.354Z,18.52
2018-06-08T00:17:32.283Z,18.57
2018-06-08T00:18:32.211Z,18.52
2018-06-08T00:19:32.140Z,18.50
2018-06-08T00:20:32.069Z,18.53
2018-06-08T00:21:31.999Z,18.53
2018-06-08T00:22:31.927Z,18.42
2018-06-08T00:23:31.857Z,18.46
2018-06-08T00:24:31.785Z,18.44
2018-06-08T00:25:31.716Z,18.49
2018-06-08T00:26:31.642Z,18.57
2018-06-08T00:27:31.572Z,18.52
2018-06-08T00:28:31.500Z,18.55
2018-06-08T00:29:31.430Z,18.55
2018-06-08T00:30:31.360Z,18.52
2018-06-08T00:31:31.287Z,18.57
2018-06-08T00:32:31.216Z,18.53
2018-06-08T00:33:31.149Z,18.53
2018-06-08T00:34:31.075Z,18.53
2018-06-08T00:35:31.004Z,18.57
2018-06-08T00:36:30.934Z,18.55
2018-06-08T00:37:30.874Z,18.59
2018-06-08T00:38:30.789Z,18.55
2018-06-08T00:39:30.719Z,18.61
2018-06-08T00:40:30.649Z,18.65
2018-06-08T00:41:30.578Z,18.68
2018-06-08T00:42:30.517Z,18.69
2018-06-08T00:43:30.441Z,18.67
2018-06-08T00:44:30.364Z,18.65
2018-06-08T00:45:30.293Z,18.65
2018-06-08T00:46:30.222Z,18.67
2018-06-08T00:47:30.151Z,18.65
2018-06-08T00:48:30.081Z,18.69
2018-06-08T00:49:30.011Z,18.74
2018-06-08T00:50:29.937Z,18.67
2018-06-08T00:51:29.866Z,18.68
2018-06-08T00:52:29.795Z,18.74
2018-06-08T00:53:29.878Z,18.76
2018-06-08T00:54:29.655Z,18.76
2018-06-08T00:55:29.586Z,18.67
2018-06-08T00:56:29.513Z,18.76
2018-06-08T00:57:29.443Z,18.67
2018-06-08T00:58:29.370Z,18.68
2018-06-08T00:59:29.299Z,18.67
2018-06-08T01:00:29.229Z,18.69
2018-06-08T01:01:29.163Z,18.69
2018-06-08T01:02:29.087Z,18.65
2018-06-08T01:03:29.015Z,18.67
2018-06-08T01:04:28.945Z,18.71
2018-06-08T01:05:28.874Z,18.68
2018-06-08T01:06:28.804Z,18.77
2018-06-08T01:07:28.731Z,18.77
2018-06-08T01:08:28.662Z,18.65
2018-06-08T01:09:28.590Z,18.58
2018-06-08T01:10:28.518Z,18.62
2018-06-08T01:11:28.449Z,18.62
2018-06-08T01:12:28.380Z,18.61
2018-06-08T01:13:28.307Z,18.57
2018-06-08T01:14:28.234Z,18.61
2018-06-08T01:15:28.164Z,18.62
2018-06-08T01:16:28.093Z,18.61
2018-06-08T01:17:28.023Z,18.62
2018-06-08T01:18:27.950Z,18.65
2018-06-08T01:19:27.880Z,18.64
2018-06-08T01:20:27.809Z,18.65
2018-06-08T01:21:27.738Z,18.62
2018-06-08T01:22:27.666Z,18.71
2018-06-08T01:23:27.597Z,18.68
2018-06-08T01:24:27.525Z,18.67
2018-06-08T01:25:27.454Z,18.69
2018-06-08T01:26:27.383Z,18.69
2018-06-08T01:27:27.312Z,18.71
2018-06-08T01:28:27.240Z,18.76
2018-06-08T01:29:27.171Z,18.69
2018-06-08T01:30:27.098Z,18.76
2018-06-08T01:31:27.029Z,18.69
2018-06-08T01:32:26.957Z,18.71
2018-06-08T01:33:26.887Z,18.73
2018-06-08T01:34:26.815Z,18.74
2018-06-08T01:35:26.744Z,18.71
2018-06-08T01:36:26.674Z,18.77
2018-06-08T01:37:26.602Z,18.77
2018-06-08T01:38:26.531Z,18.65
2018-06-08T01:39:26.460Z,18.73
2018-06-08T01:40:26.389Z,18.73
2018-06-08T01:41:26.320Z,18.79
2018-06-08T01:42:26.248Z,18.80
2018-06-08T01:43:26.178Z,18.79
2018-06-08T01:44:26.107Z,18.77
2018-06-08T01:45:26.036Z,18.80
2018-06-08T01:46:25.968Z,18.74
2018-06-08T01:47:25.893Z,18.80
2018-06-08T01:48:25.822Z,18.79
2018-06-08T01:49:25.754Z,18.79
2018-06-08T01:50:25.682Z,18.82
2018-06-08T01:51:25.610Z,18.80
2018-06-08T01:52:25.541Z,18.84
2018-06-08T01:53:25.468Z,18.86
2018-06-08T01:54:25.396Z,18.82
2018-06-08T01:55:25.325Z,18.90
2018-06-08T01:56:25.255Z,18.95
2018-06-08T01:57:25.185Z,18.89
2018-06-08T01:58:25.113Z,18.92
2018-06-08T01:59:25.042Z,18.92
2018-06-08T02:00:24.975Z,18.94
2018-06-08T02:01:24.901Z,18.83
2018-06-08T02:02:24.831Z,18.95
2018-06-08T02:03:24.759Z,18.79
2018-06-08T02:04:24.691Z,18.82
2018-06-08T02:05:24.617Z,18.80
2018-06-08T02:06:24.545Z,18.82
2018-06-08T02:07:24.476Z,18.73
2018-06-08T02:08:24.405Z,18.77
2018-06-08T02:09:24.333Z,18.74
2018-06-08T02:10:24.262Z,18.77
2018-06-08T02:11:24.192Z,18.83
2018-06-08T02:12:24.122Z,18.77
2018-06-08T02:13:24.051Z,18.80
2018-06-08T02:14:23.978Z,18.74
2018-06-08T02:15:23.908Z,18.74
2018-06-08T02:16:23.838Z,18.64
2018-06-08T02:17:23.770Z,18.58
2018-06-08T02:18:23.695Z,18.50
2018-06-08T02:19:23.625Z,18.55
2018-06-08T02:20:23.554Z,18.49
2018-06-08T02:21:23.485Z,18.52
2018-06-08T02:22:23.412Z,18.52
2018-06-08T02:23:23.340Z,18.53
2018-06-08T02:24:23.273Z,18.43
2018-06-08T02:25:23.201Z,18.47
2018-06-08T02:26:23.129Z,18.46
2018-06-08T02:27:23.059Z,18.49
2018-06-08T02:28:22.987Z,18.42
2018-06-08T02:29:22.916Z,18.44
2018-06-08T02:30:22.846Z,18.34
2018-06-08T02:31:22.773Z,18.28
2018-06-08T02:32:22.704Z,18.31
2018-06-08T02:33:22.634Z,18.32
2018-06-08T02:34:22.559Z,18.31
2018-06-08T02:35:22.492Z,18.40
2018-06-08T02:36:22.418Z,18.32
2018-06-08T02:37:22.348Z,18.34
2018-06-08T02:38:22.278Z,18.39
2018-06-08T02:39:22.204Z,18.29
2018-06-08T02:40:22.133Z,18.32
2018-06-08T02:41:22.063Z,18.34
2018-06-08T02:42:21.991Z,18.22
2018-06-08T02:43:21.920Z,18.22
2018-06-08T02:44:21.848Z,18.18
2018-06-08T02:45:21.778Z,18.22
2018-06-08T02:46:21.705Z,18.25
2018-06-08T02:47:21.635Z,18.19
2018-06-08T02:48:21.564Z,18.21
2018-06-08T02:49:21.493Z,18.18
2018-06-08T02:50:21.421Z,18.25
2018-06-08T02:51:21.357Z,18.22
2018-06-08T02:52:21.280Z,18.10
2018-06-08T02:53:21.209Z,18.07
2018-06-08T02:54:21.136Z,18.07
2018-06-08T02:55:21.066Z,18.06
2018-06-08T02:56:20.994Z,18.19
2018-06-08T02:57:20.924Z,18.09
2018-06-08T02:58:20.851Z,18.00
2018-06-08T02:59:20.781Z,18.13
2018-06-08T03:00:20.713Z,18.09
2018-06-08T03:01:20.639Z,18.16
2018-06-08T03:02:20.567Z,18.11
2018-06-08T03:03:20.495Z,18.07
2018-06-08T03:04:20.424Z,18.04
2018-06-08T03:05:20.368Z,17.95
2018-06-08T03:06:20.281Z,18.02
2018-06-08T03:07:20.211Z,18.02
2018-06-08T03:08:20.140Z,17.96
2018-06-08T03:09:20.069Z,17.91
2018-06-08T03:10:19.997Z,17.89
2018-06-08T03:11:19.926Z,17.79
2018-06-08T03:12:19.853Z,17.77
2018-06-08T03:13:19.786Z,17.67
2018-06-08T03:14:19.714Z,17.71
2018-06-08T03:15:19.642Z,17.69
2018-06-08T03:16:19.572Z,17.54
2018-06-08T03:17:19.498Z,17.73
2018-06-08T03:18:19.425Z,17.58
2018-06-08T03:19:19.354Z,17.63
2018-06-08T03:20:19.288Z,17.55
2018-06-08T03:21:19.210Z,17.60
2018-06-08T03:22:19.139Z,17.60
2018-06-08T03:23:19.068Z,17.58
2018-06-08T03:24:18.998Z,17.54
2018-06-08T03:25:18.928Z,17.60
2018-06-08T03:26:18.853Z,17.55
2018-06-08T03:27:18.782Z,17.54
2018-06-08T03:28:18.710Z,17.57
2018-06-08T03:29:18.639Z,17.51
2018-06-08T03:30:18.568Z,17.51
2018-06-08T03:31:18.495Z,17.60
2018-06-08T03:32:18.424Z,17.60
2018-06-08T03:33:18.356Z,17.58
2018-06-08T03:34:18.279Z,17.54
2018-06-08T03:35:18.207Z,17.54
2018-06-08T03:36:18.138Z,17.48
2018-06-08T03:37:18.069Z,17.53
2018-06-08T03:38:17.994Z,17.40
2018-06-08T03:39:17.921Z,17.43
2018-06-08T03:40:17.851Z,17.50
2018-06-08T03:41:17.778Z,17.50
2018-06-08T03:42:17.707Z,17.51
2018-06-08T03:43:17.636Z,17.53
2018-06-08T03:44:17.565Z,17.51
2018-06-08T03:45:17.492Z,17.53
2018-06-08T03:46:17.420Z,17.40
2018-06-08T03:47:17.353Z,17.43
2018-06-08T03:48:17.277Z,17.46
2018-06-08T03:49:17.207Z,17.39
2018-06-08T03:50:17.134Z,17.53
2018-06-08T03:51:17.061Z,17.47
2018-06-08T03:52:16.992Z,17.38
2018-06-08T03:53:16.920Z,17.36
2018-06-08T03:54:16.846Z,17.30
2018-06-08T03:55:16.776Z,17.36
2018-06-08T03:56:16.703Z,17.29
2018-06-08T03:57:16.635Z,17.33
2018-06-08T03:58:16.559Z,17.35
2018-06-08T03:59:16.492Z,17.29
2018-06-08T04:00:16.418Z,17.35
2018-06-08T04:01:16.346Z,17.39
2018-06-08T04:02:16.275Z,17.50
2018-06-08T04:03:16.201Z,17.46
2018-06-08T04:04:16.133Z,17.44
2018-06-08T04:05:16.059Z,17.43
2018-06-08T04:06:15.986Z,17.47
2018-06-08T04:07:15.915Z,17.36
2018-06-08T04:08:15.842Z,17.50
2018-06-08T04:09:15.772Z,17.40
2018-06-08T04:10:15.700Z,17.43
2018-06-08T04:11:15.628Z,17.38
2018-06-08T04:12:15.557Z,17.43
2018-06-08T04:13:15.488Z,17.35
2018-06-08T04:14:15.412Z,17.40
2018-06-08T04:15:15.341Z,17.40
2018-06-08T04:16:15.269Z,17.35
2018-06-08T04:17:15.197Z,17.40
2018-06-08T04:18:15.124Z,17.38
2018-06-08T04:19:15.054Z,17.29
2018-06-08T04:20:14.984Z,17.30
2018-06-08T04:21:14.910Z,17.35
2018-06-08T04:22:14.838Z,17.30
2018-06-08T04:23:14.768Z,17.29
2018-06-08T04:24:14.695Z,17.43
2018-06-08T04:25:14.624Z,17.39
2018-06-08T04:26:14.551Z,17.46
2018-06-08T04:27:14.483Z,17.38
2018-06-08T04:28:14.408Z,17.51
2018-06-08T04:29:14.337Z,17.54
2018-06-08T04:30:14.263Z,17.57
2018-06-08T04:31:14.194Z,17.55
2018-06-08T04:32:14.124Z,17.53
2018-06-08T04:33:14.050Z,17.60
2018-06-08T04:34:13.978Z,17.58
2018-06-08T04:35:13.906Z,17.53
2018-06-08T04:36:13.837Z,17.63
2018-06-08T04:37:13.764Z,17.60
2018-06-08T04:38:13.692Z,17.71
2018-06-08T04:39:13.620Z,17.69
2018-06-08T04:40:13.549Z,17.73
2018-06-08T04:41:13.478Z,17.66
2018-06-08T04:42:13.405Z,17.70
2018-06-08T04:43:13.334Z,17.76
2018-06-08T04:44:13.262Z,17.71
2018-06-08T04:45:13.189Z,17.66
2018-06-08T04:46:13.118Z,17.76
2018-06-08T04:47:13.052Z,17.71
2018-06-08T04:48:12.979Z,17.81
2018-06-08T04:49:12.903Z,17.79
2018-06-08T04:50:12.833Z,17.81
2018-06-08T04:51:12.761Z,17.77
2018-06-08T04:52:12.690Z,17.81
2018-06-08T04:53:12.617Z,17.77
2018-06-08T04:54:12.549Z,17.79
2018-06-08T04:55:12.476Z,17.89
2018-06-08T04:56:12.405Z,17.89
2018-06-08T04:57:12.333Z,17.92
2018-06-08T04:58:12.265Z,17.98
2018-06-08T04:59:12.190Z,17.98
2018-06-08T05:00:12.121Z,17.95
2018-06-08T05:01:12.050Z,17.98
2018-06-08T05:02:11.978Z,18.06
2018-06-08T05:03:11.906Z,18.10
2018-06-08T05:04:11.832Z,18.03
2018-06-08T05:05:11.762Z,18.18
2018-06-08T05:06:11.689Z,18.22
2018-06-08T05:07:11.618Z,18.18
2018-06-08T05:08:11.547Z,18.25
2018-06-08T05:09:11.476Z,18.31
2018-06-08T05:10:11.405Z,18.31
2018-06-08T05:11:11.335Z,18.39
2018-06-08T05:12:11.262Z,18.43
2018-06-08T05:13:11.192Z,18.44
2018-06-08T05:14:11.121Z,18.58
2018-06-08T05:15:11.049Z,18.47
2018-06-08T05:16:10.979Z,18.64
2018-06-08T05:17:10.954Z,18.64
2018-06-08T05:18:10.836Z,18.80
2018-06-08T05:19:10.765Z,18.76
2018-06-08T05:20:10.695Z,18.92
2018-06-08T05:21:10.624Z,18.94
2018-06-08T05:22:10.553Z,18.97
2018-06-08T05:23:10.486Z,18.99
2018-06-08T05:24:10.411Z,19.06
2018-06-08T05:25:10.340Z,19.05
2018-06-08T05:26:10.322Z,19.20
2018-06-08T05:27:10.199Z,19.23
2018-06-08T05:28:10.129Z,19.21
2018-06-08T05:29:10.057Z,19.24
2018-06-08T05:30:09.986Z,19.38
2018-06-08T05:31:09.916Z,19.39
2018-06-08T05:32:09.845Z,19.42
2018-06-08T05:33:09.777Z,19.46
2018-06-08T05:34:09.703Z,19.54
2018-06-08T05:35:09.634Z,19.54
2018-06-08T05:36:09.598Z,19.54
2018-06-08T05:37:09.493Z,19.57
2018-06-08T05:38:09.423Z,19.61
2018-06-08T05:39:09.351Z,19.68
2018-06-08T05:40:09.282Z,19.69
2018-06-08T05:41:09.211Z,19.61
2018-06-08T05:42:09.143Z,19.76
2018-06-08T05:43:09.071Z,19.83
2018-06-08T05:44:09.001Z,19.76
2018-06-08T05:45:08.930Z,19.73
2018-06-08T05:46:08.859Z,19.88
2018-06-08T05:47:08.790Z,19.91
2018-06-08T05:48:08.775Z,19.93
2018-06-08T05:49:08.650Z,20.01
2018-06-08T05:50:08.579Z,19.95
2018-06-08T05:51:08.509Z,20.08
2018-06-08T05:52:08.439Z,20.10
2018-06-08T05:53:08.369Z,20.12
2018-06-08T05:54:08.344Z,20.09
2018-06-08T05:55:08.231Z,20.10
2018-06-08T05:56:08.159Z,20.10
2018-06-08T05:57:08.090Z,20.20
2018-06-08T05:58:08.019Z,20.18
2018-06-08T05:59:07.949Z,20.16
2018-06-08T06:00:07.880Z,20.19
2018-06-08T06:01:07.861Z,20.19
2018-06-08T06:02:07.739Z,20.30
2018-06-08T06:03:07.671Z,20.40
2018-06-08T06:04:07.599Z,20.43
2018-06-08T06:05:07.530Z,20.46
2018-06-08T06:06:07.459Z,20.42
2018-06-08T06:07:07.389Z,20.62
2018-06-08T06:08:07.369Z,20.66
2018-06-08T06:09:07.250Z,20.64
2018-06-08T06:10:07.179Z,20.75
2018-06-08T06:11:07.110Z,20.72
2018-06-08T06:12:07.042Z,20.82
2018-06-08T06:13:06.973Z,20.80
2018-06-08T06:14:06.902Z,20.84
2018-06-08T06:15:06.832Z,20.83
2018-06-08T06:16:06.763Z,20.80
2018-06-08T06:17:06.693Z,20.89
2018-06-08T06:18:06.623Z,20.89
2018-06-08T06:19:06.554Z,20.94
2018-06-08T06:20:06.484Z,20.93
2018-06-08T06:21:06.418Z,20.96
2018-06-08T06:22:06.346Z,21.01
2018-06-08T06:23:06.277Z,20.96
2018-06-08T06:24:06.208Z,20.99
2018-06-08T06:25:06.138Z,20.93
2018-06-08T06:26:06.069Z,20.89
2018-06-08T06:27:06.002Z,20.84
2018-06-08T06:28:05.931Z,20.83
2018-06-08T06:29:05.861Z,20.83
2018-06-08T06:30:05.791Z,20.76
2018-06-08T06:31:06.072Z,20.75
2018-06-08T06:32:05.654Z,20.76
2018-06-08T06:33:05.584Z,20.76
2018-06-08T06:34:05.514Z,20.75
2018-06-08T06:35:05.444Z,20.74
2018-06-08T06:36:05.376Z,20.87
2018-06-08T06:37:05.306Z,20.99
2018-06-08T06:38:05.237Z,21.01
2018-06-08T06:39:05.171Z,21.05
2018-06-08T06:40:05.098Z,20.98
2018-06-08T06:41:05.031Z,21.14
2018-06-08T06:42:04.958Z,21.16
2018-06-08T06:43:04.889Z,21.19
2018-06-08T06:44:04.823Z,21.35
2018-06-08T06:45:04.752Z,21.39
2018-06-08T06:46:04.681Z,21.46
2018-06-08T06:47:04.612Z,21.51
2018-06-08T06:48:04.543Z,21.51
2018-06-08T06:49:04.475Z,21.51
2018-06-08T06:50:04.405Z,21.51
2018-06-08T06:51:04.336Z,21.56
2018-06-08T06:52:04.266Z,21.60
2018-06-08T06:53:04.200Z,21.63
2018-06-08T06:54:04.128Z,21.63
2018-06-08T06:55:04.060Z,21.64
2018-06-08T06:56:03.995Z,21.76
2018-06-08T06:57:03.921Z,21.75
2018-06-08T06:58:03.852Z,21.78
2018-06-08T06:59:03.782Z,21.69
2018-06-08T07:00:03.716Z,21.72
2018-06-08T07:01:03.646Z,21.63
2018-06-08T07:02:03.576Z,21.53
2018-06-08T07:03:03.506Z,21.56
2018-06-08T07:04:03.438Z,21.49
2018-06-08T07:05:03.369Z,21.67
2018-06-08T07:06:03.300Z,21.67
2018-06-08T07:07:03.231Z,21.63
2018-06-08T07:08:03.162Z,21.66
2018-06-08T07:09:03.096Z,21.70
2018-06-08T07:10:03.025Z,21.69
2018-06-08T07:11:02.955Z,21.59
2018-06-08T07:12:02.887Z,21.46
2018-06-08T07:13:02.818Z,21.51
2018-06-08T07:14:02.747Z,21.61
2018-06-08T07:15:02.680Z,21.64
2018-06-08T07:16:02.611Z,21.63
2018-06-08T07:17:02.545Z,21.74
2018-06-08T07:18:02.472Z,21.89
2018-06-08T07:19:02.405Z,21.97
2018-06-08T07:20:02.335Z,21.98
2018-06-08T07:21:02.265Z,22.16
2018-06-08T07:22:02.196Z,22.17
2018-06-08T07:23:02.127Z,22.32
2018-06-08T07:24:02.058Z,22.24
2018-06-08T07:25:01.992Z,22.23
2018-06-08T07:26:01.921Z,22.34
2018-06-08T07:27:01.855Z,22.39
2018-06-08T07:28:01.783Z,22.42
2018-06-08T07:29:01.715Z,22.52
2018-06-08T07:30:01.647Z,22.49
2018-06-08T07:31:01.577Z,22.49
2018-06-08T07:32:01.513Z,22.53
2018-06-08T07:33:01.440Z,22.65
2018-06-08T07:34:01.371Z,22.74
2018-06-08T07:35:01.302Z,22.81
2018-06-08T07:36:01.234Z,22.79
2018-06-08T07:37:01.166Z,22.87
2018-06-08T07:38:01.097Z,22.81
2018-06-08T07:39:01.029Z,22.86
2018-06-08T07:40:00.973Z,22.96
2018-06-08T07:41:00.892Z,22.97
2018-06-08T07:42:00.822Z,22.94
2018-06-08T07:43:00.755Z,22.96
2018-06-08T07:44:00.685Z,22.75
2018-06-08T07:45:00.619Z,22.69
2018-06-08T07:46:00.548Z,22.52
2018-06-08T07:47:00.481Z,22.59
2018-06-08T07:48:00.412Z,22.62
2018-06-08T07:49:00.345Z,22.59
2018-06-08T07:50:00.276Z,22.67
2018-06-08T07:51:00.209Z,22.67
2018-06-08T07:52:00.140Z,22.69
2018-06-08T07:53:00.077Z,22.68
2018-06-08T07:54:00.009Z,22.62
2018-06-08T07:54:59.933Z,22.62
2018-06-08T07:55:59.869Z,22.67
2018-06-08T07:56:59.798Z,22.71
2018-06-08T07:57:59.729Z,22.84
2018-06-08T07:58:59.662Z,22.83
2018-06-08T07:59:59.594Z,22.86
2018-06-08T08:00:59.526Z,22.81
2018-06-08T08:01:59.456Z,22.83
2018-06-08T08:02:59.388Z,22.75
2018-06-08T08:03:59.321Z,22.63
2018-06-08T08:04:59.252Z,22.71
2018-06-08T08:05:59.184Z,22.65
2018-06-08T08:06:59.115Z,22.59
2018-06-08T08:07:59.048Z,22.67
2018-06-08T08:08:58.980Z,22.65
2018-06-08T08:09:58.910Z,22.56
2018-06-08T08:10:58.843Z,22.62
2018-06-08T08:11:58.774Z,22.65
2018-06-08T08:12:58.707Z,22.68
2018-06-08T08:13:58.638Z,22.62
2018-06-08T08:14:58.569Z,22.62
2018-06-08T08:15:58.501Z,22.65
2018-06-08T08:16:58.434Z,22.71
2018-06-08T08:17:58.364Z,22.72
2018-06-08T08:18:58.296Z,22.69
2018-06-08T08:19:58.236Z,22.69
2018-06-08T08:20:58.162Z,22.77
2018-06-08T08:21:58.092Z,22.75
2018-06-08T08:22:58.024Z,22.81
2018-06-08T08:23:57.956Z,22.78
2018-06-08T08:24:57.888Z,22.83
2018-06-08T08:25:57.820Z,22.71
2018-06-08T08:26:57.751Z,22.74
2018-06-08T08:27:57.684Z,22.79
2018-06-08T08:28:57.617Z,22.87
2018-06-08T08:29:57.548Z,22.86
2018-06-08T08:30:57.479Z,22.79
2018-06-08T08:31:57.410Z,22.78
2018-06-08T08:32:57.343Z,22.79
2018-06-08T08:33:57.274Z,22.78
2018-06-08T08:34:57.206Z,22.74
2018-06-08T08:35:57.145Z,22.79
2018-06-08T08:36:57.071Z,22.79
2018-06-08T08:37:57.004Z,22.81
2018-06-08T08:38:56.935Z,22.86
2018-06-08T08:39:56.866Z,22.86
2018-06-08T08:40:56.799Z,22.90
2018-06-08T08:41:56.730Z,22.93
2018-06-08T08:42:56.663Z,22.90
2018-06-08T08:43:56.596Z,22.79
2018-06-08T08:44:56.528Z,22.78
2018-06-08T08:45:56.460Z,22.78
2018-06-08T08:46:56.391Z,22.83
2018-06-08T08:47:56.324Z,22.72
2018-06-08T08:48:56.256Z,22.72
2018-06-08T08:49:56.189Z,22.72
2018-06-08T08:50:56.128Z,22.75
2018-06-08T08:51:56.100Z,22.92
2018-06-08T08:52:55.985Z,22.92
2018-06-08T08:53:55.915Z,22.94
2018-06-08T08:54:55.848Z,22.94
2018-06-08T08:55:55.781Z,23.02
2018-06-08T08:56:55.734Z,23.07
2018-06-08T08:57:55.645Z,23.04
2018-06-08T08:58:55.577Z,22.99
2018-06-08T08:59:55.510Z,22.96
2018-06-08T09:00:55.443Z,23.07
2018-06-08T09:01:55.373Z,23.09
2018-06-08T09:02:55.305Z,23.22
2018-06-08T09:03:55.239Z,23.43
2018-06-08T09:04:55.170Z,23.56
2018-06-08T09:05:55.101Z,23.48
2018-06-08T09:06:55.036Z,23.45
2018-06-08T09:07:54.967Z,23.53
2018-06-08T09:08:54.898Z,23.46
2018-06-08T09:09:54.830Z,23.37
2018-06-08T09:10:54.762Z,23.40
2018-06-08T09:11:54.696Z,23.24
2018-06-08T09:12:54.627Z,23.26
2018-06-08T09:13:54.559Z,23.34
2018-06-08T09:14:54.491Z,23.37
2018-06-08T09:15:54.424Z,23.50
2018-06-08T09:16:54.355Z,23.50
2018-06-08T09:17:54.288Z,23.67
2018-06-08T09:18:54.219Z,23.80
2018-06-08T09:19:54.152Z,23.80
2018-06-08T09:20:54.084Z,23.97
2018-06-08T09:21:54.018Z,24.10
2018-06-08T09:22:53.948Z,24.07
2018-06-08T09:23:53.880Z,24.17
2018-06-08T09:24:53.814Z,24.12
2018-06-08T09:25:53.744Z,24.25
2018-06-08T09:26:53.676Z,24.27
2018-06-08T09:27:53.609Z,24.35
2018-06-08T09:28:53.541Z,24.47
2018-06-08T09:29:53.476Z,24.35
2018-06-08T09:30:53.405Z,24.44
2018-06-08T09:31:53.337Z,24.44
2018-06-08T09:32:53.270Z,24.45
2018-06-08T09:33:53.202Z,24.35
2018-06-08T09:34:53.136Z,24.47
2018-06-08T09:35:53.066Z,24.54
2018-06-08T09:36:53.001Z,24.57
2018-06-08T09:37:52.931Z,24.57
2018-06-08T09:38:52.866Z,24.57
2018-06-08T09:39:52.800Z,24.63
2018-06-08T09:40:52.730Z,24.64
2018-06-08T09:41:52.661Z,24.60
2018-06-08T09:42:52.595Z,24.67
2018-06-08T09:43:52.528Z,24.62
2018-06-08T09:44:52.464Z,24.62
2018-06-08T09:45:52.394Z,24.76
2018-06-08T09:46:52.325Z,24.73
2018-06-08T09:47:52.258Z,24.82
2018-06-08T09:48:52.191Z,24.78
2018-06-08T09:49:52.123Z,24.86
2018-06-08T09:50:52.056Z,24.76
2018-06-08T09:51:51.988Z,24.79
2018-06-08T09:52:51.921Z,24.83
2018-06-08T09:53:51.854Z,24.93
2018-06-08T09:54:51.803Z,24.90
2018-06-08T09:55:51.720Z,24.94
2018-06-08T09:56:51.653Z,24.91
2018-06-08T09:57:51.585Z,24.95
2018-06-08T09:58:51.518Z,25.02
2018-06-08T09:59:51.450Z,25.05
2018-06-08T10:00:51.386Z,25.12
2018-06-08T10:01:51.316Z,25.08
2018-06-08T10:02:51.248Z,25.13
2018-06-08T10:03:51.182Z,25.28
2018-06-08T10:04:51.115Z,25.31
2018-06-08T10:05:51.049Z,25.31
2018-06-08T10:06:50.981Z,25.38
2018-06-08T10:07:50.916Z,25.32
2018-06-08T10:08:50.847Z,25.32
2018-06-08T10:09:50.780Z,25.42
2018-06-08T10:10:50.714Z,25.59
2018-06-08T10:11:50.654Z,25.78
2018-06-08T10:12:50.579Z,25.87
2018-06-08T10:13:50.512Z,25.83
2018-06-08T10:14:50.445Z,25.56
2018-06-08T10:15:50.378Z,25.40
2018-06-08T10:16:50.312Z,25.15
2018-06-08T10:17:50.245Z,24.78
2018-06-08T10:18:50.180Z,24.75
2018-06-08T10:19:50.112Z,24.85
2018-06-08T10:20:50.049Z,24.76
2018-06-08T10:21:49.976Z,24.85
2018-06-08T10:22:49.910Z,24.86
2018-06-08T10:23:49.865Z,25.04
2018-06-08T10:24:49.775Z,25.20
2018-06-08T10:25:49.708Z,25.27
2018-06-08T10:26:49.642Z,25.38
2018-06-08T10:27:49.577Z,25.38
2018-06-08T10:28:49.510Z,25.42
2018-06-08T10:29:49.441Z,25.52
2018-06-08T10:30:49.375Z,25.60
2018-06-08T10:31:49.308Z,25.46
2018-06-08T10:32:49.242Z,25.41
2018-06-08T10:33:49.174Z,25.45
2018-06-08T10:34:49.138Z,25.40
2018-06-08T10:35:49.041Z,25.47
2018-06-08T10:36:48.973Z,25.59
2018-06-08T10:37:48.909Z,25.68
2018-06-08T10:38:48.839Z,25.84
2018-06-08T10:39:48.773Z,25.94
2018-06-08T10:40:48.709Z,26.04
2018-06-08T10:41:48.639Z,26.09
2018-06-08T10:42:48.573Z,26.35
2018-06-08T10:43:48.506Z,26.55
2018-06-08T10:44:48.444Z,26.60
2018-06-08T10:45:48.373Z,26.42
2018-06-08T10:46:48.311Z,26.28
2018-06-08T10:47:48.241Z,26.24
2018-06-08T10:48:48.175Z,26.15
2018-06-08T10:49:48.109Z,26.11
2018-06-08T10:50:48.042Z,26.16
2018-06-08T10:51:47.977Z,26.27
2018-06-08T10:52:47.910Z,26.38
2018-06-08T10:53:47.844Z,26.42
2018-06-08T10:54:47.778Z,26.52
2018-06-08T10:55:47.716Z,26.64
2018-06-08T10:56:47.647Z,26.77
2018-06-08T10:57:47.612Z,26.89
2018-06-08T10:58:47.515Z,26.94
2018-06-08T10:59:47.449Z,26.97
2018-06-08T11:00:47.386Z,26.92
2018-06-08T11:01:47.317Z,27.04
2018-06-08T11:02:47.253Z,27.01
2018-06-08T11:03:47.190Z,27.01
2018-06-08T11:04:47.122Z,26.79
2018-06-08T11:05:47.055Z,26.80
2018-06-08T11:06:46.991Z,26.68
2018-06-08T11:07:46.926Z,26.55
2018-06-08T11:08:46.860Z,26.46
2018-06-08T11:09:46.794Z,26.24
2018-06-08T11:10:46.729Z,26.28
2018-06-08T11:11:46.666Z,26.40
2018-06-08T11:12:46.600Z,26.43
2018-06-08T11:13:46.534Z,26.45
2018-06-08T11:14:46.469Z,26.52
2018-06-08T11:15:46.403Z,26.57
2018-06-08T11:16:46.338Z,26.77
2018-06-08T11:17:46.280Z,26.90
2018-06-08T11:18:46.209Z,26.95
2018-06-08T11:19:46.148Z,26.98
2018-06-08T11:20:46.081Z,27.08
2018-06-08T11:21:46.016Z,27.05
2018-06-08T11:22:45.950Z,27.14
2018-06-08T11:23:45.893Z,27.20
2018-06-08T11:24:45.825Z,27.38
2018-06-08T11:25:45.761Z,27.70
2018-06-08T11:26:45.699Z,27.72
2018-06-08T11:27:45.637Z,28.04
2018-06-08T11:28:45.575Z,28.25
2018-06-08T11:29:45.514Z,28.50
2018-06-08T11:30:45.451Z,28.76
2018-06-08T11:31:45.393Z,28.90
2018-06-08T11:32:45.329Z,29.28
2018-06-08T11:33:45.273Z,29.46
2018-06-08T11:34:45.208Z,29.81
2018-06-08T11:35:45.149Z,29.74
2018-06-08T11:36:45.091Z,29.48
2018-06-08T11:37:45.029Z,29.73
2018-06-08T11:38:44.972Z,29.84
2018-06-08T11:39:44.913Z,29.66
2018-06-08T11:40:44.856Z,29.43
2018-06-08T11:41:44.880Z,29.46
2018-06-08T11:42:44.738Z,29.28
2018-06-08T11:43:44.679Z,29.55
2018-06-08T11:44:44.620Z,30.15
2018-06-08T11:45:44.563Z,30.34
2018-06-08T11:46:44.512Z,30.53
2018-06-08T11:47:44.447Z,30.55
2018-06-08T11:48:44.391Z,30.32
2018-06-08T11:49:44.331Z,29.50
2018-06-08T11:50:44.274Z,29.13
2018-06-08T11:51:44.223Z,28.26
2018-06-08T11:52:44.158Z,28.53
2018-06-08T11:53:44.101Z,29.36
2018-06-08T11:54:44.041Z,28.94
2018-06-08T11:55:43.984Z,28.91
2018-06-08T11:56:43.926Z,29.46
2018-06-08T11:57:43.867Z,29.83
2018-06-08T11:58:43.808Z,29.26
2018-06-08T11:59:43.749Z,28.78
2018-06-08T12:00:43.691Z,29.43
2018-06-08T12:01:43.667Z,30.11
2018-06-08T12:02:43.575Z,30.49
2018-06-08T12:03:43.515Z,30.10
2018-06-08T12:04:43.456Z,30.32
2018-06-08T12:05:43.397Z,30.44
2018-06-08T12:06:43.340Z,30.71
2018-06-08T12:07:43.282Z,30.79
2018-06-08T12:08:43.224Z,31.20
2018-06-08T12:09:43.167Z,31.39
2018-06-08T12:10:43.106Z,31.60
2018-06-08T12:11:43.050Z,31.87
2018-06-08T12:12:42.992Z,32.11
2018-06-08T12:13:42.935Z,32.39
2018-06-08T12:14:42.879Z,31.76
2018-06-08T12:15:42.821Z,31.38
2018-06-08T12:16:42.766Z,30.70
2018-06-08T12:17:42.709Z,30.89
2018-06-08T12:18:42.653Z,31.30
2018-06-08T12:19:42.598Z,31.79
2018-06-08T12:20:42.541Z,31.79
2018-06-08T12:21:42.485Z,30.86
2018-06-08T12:22:42.428Z,31.09
2018-06-08T12:23:42.377Z,31.58
2018-06-08T12:24:42.319Z,31.98
2018-06-08T12:25:42.263Z,31.96
2018-06-08T12:26:42.208Z,32.31
2018-06-08T12:27:42.152Z,32.50
2018-06-08T12:28:42.098Z,32.38
2018-06-08T12:29:42.041Z,32.01
2018-06-08T12:30:41.989Z,31.48
2018-06-08T12:31:41.936Z,31.23
2018-06-08T12:32:41.878Z,31.64
2018-06-08T12:33:41.822Z,31.64
2018-06-08T12:34:41.766Z,31.99
2018-06-08T12:35:41.712Z,32.28
2018-06-08T12:36:41.657Z,32.92
2018-06-08T12:37:41.602Z,33.27
2018-06-08T12:38:41.548Z,32.98
2018-06-08T12:39:41.494Z,31.36
2018-06-08T12:40:41.439Z,31.07
2018-06-08T12:41:41.382Z,31.45
2018-06-08T12:42:41.330Z,31.96
2018-06-08T12:43:41.275Z,32.02
2018-06-08T12:44:41.223Z,32.24
2018-06-08T12:45:41.167Z,31.76
2018-06-08T12:46:41.111Z,31.75
2018-06-08T12:47:41.056Z,31.91
2018-06-08T12:48:41.005Z,32.54
2018-06-08T12:49:40.947Z,32.89
2018-06-08T12:50:40.893Z,33.16
2018-06-08T12:51:40.838Z,32.75